createdAt,value
2022-12-17T00:02:06.259Z,199.40
2022-12-17T00:05:27.438Z,202.20
2022-12-17T00:08:51.341Z,202.00
2022-12-17T00:12:12.840Z,198.70
2022-12-17T00:15:33.440Z,197.00
2022-12-17T00:18:54.113Z,190.30
2022-12-17T00:22:16.952Z,195.50
2022-12-17T00:25:37.445Z,199.70
2022-12-17T00:28:58.123Z,203.00
2022-12-17T00:32:18.645Z,193.30
2022-12-17T00:35:39.201Z,192.30
2022-12-17T00:38:59.600Z,196.00
2022-12-17T00:42:20.233Z,185.40
2022-12-17T00:45:40.741Z,187.00
2022-12-17T00:49:01.218Z,177.30
2022-12-17T00:52:21.652Z,179.80
2022-12-17T00:55:41.933Z,162.90
2022-12-17T00:59:02.253Z,176.80
2022-12-17T01:02:23.017Z,167.30
2022-12-17T01:05:43.838Z,165.90
2022-12-17T01:09:04.042Z,161.40
2022-12-17T01:12:24.773Z,159.40
2022-12-17T01:15:45.191Z,149.90
2022-12-17T01:19:05.886Z,149.60
2022-12-17T01:22:26.799Z,165.60
2022-12-17T01:25:47.412Z,149.00
2022-12-17T01:29:07.991Z,156.70
2022-12-17T01:32:28.383Z,159.70
2022-12-17T01:35:49.120Z,142.40
2022-12-17T01:39:12.908Z,159.90
2022-12-17T01:42:33.544Z,152.00
2022-12-17T01:46:00.700Z,152.90
2022-12-17T01:49:21.466Z,148.50
2022-12-17T01:52:42.675Z,156.40
2022-12-17T01:56:03.345Z,165.70
2022-12-17T01:59:24.703Z,165.60
2022-12-17T02:02:46.443Z,164.40
2022-12-17T02:06:19.226Z,168.60
2022-12-17T02:09:56.976Z,180.80
2022-12-17T02:13:42.550Z,167.10
2022-12-17T02:17:09.118Z,162.90
2022-12-17T02:20:49.462Z,162.00
2022-12-17T02:24:29.506Z,156.00
2022-12-17T02:27:50.513Z,144.10
2022-12-17T02:31:12.054Z,150.60
2022-12-17T02:34:32.696Z,158.10
2022-12-17T02:37:53.184Z,156.60
2022-12-17T02:41:13.671Z,159.20
2022-12-17T02:44:36.262Z,161.60
2022-12-17T02:47:57.410Z,145.90
2022-12-17T02:51:18.041Z,151.40
2022-12-17T02:54:49.294Z,161.30
2022-12-17T02:58:09.523Z,152.70
2022-12-17T03:01:30.288Z,143.80
2022-12-17T03:04:51.379Z,149.30
2022-12-17T03:08:11.945Z,146.80
2022-12-17T03:11:32.631Z,147.60
2022-12-17T03:14:53.083Z,132.40
2022-12-17T03:18:13.520Z,136.00
2022-12-17T03:21:34.037Z,133.60
2022-12-17T03:24:54.344Z,137.10
2022-12-17T03:28:14.985Z,140.70
2022-12-17T03:31:35.621Z,136.60
2022-12-17T03:34:56.244Z,132.90
2022-12-17T03:38:16.925Z,131.20
2022-12-17T03:41:37.362Z,125.30
2022-12-17T03:44:57.910Z,117.20
2022-12-17T03:48:26.376Z,127.10
2022-12-17T03:51:46.955Z,130.90
2022-12-17T03:55:07.576Z,122.60
2022-12-17T03:58:28.087Z,118.70
2022-12-17T04:01:48.703Z,123.50
2022-12-17T04:05:10.309Z,127.50
2022-12-17T04:08:32.059Z,129.90
2022-12-17T04:11:52.735Z,122.60
2022-12-17T04:15:13.466Z,124.30
2022-12-17T04:18:33.803Z,113.90
2022-12-17T04:21:55.280Z,118.80
2022-12-17T04:25:15.942Z,117.70
2022-12-17T04:28:36.390Z,127.10
2022-12-17T04:31:57.312Z,125.50
2022-12-17T04:35:17.684Z,125.40
2022-12-17T04:38:38.109Z,121.60
2022-12-17T04:41:58.750Z,125.70
2022-12-17T04:45:19.086Z,108.40
2022-12-17T04:48:39.662Z,124.50
2022-12-17T04:52:00.094Z,115.90
2022-12-17T04:55:20.352Z,108.70
2022-12-17T04:58:40.614Z,120.70
2022-12-17T05:02:01.344Z,122.70
2022-12-17T05:05:21.870Z,123.10
2022-12-17T05:08:42.141Z,125.00
2022-12-17T05:12:02.409Z,116.70
2022-12-17T05:15:23.394Z,114.70
2022-12-17T05:18:43.943Z,110.10
2022-12-17T05:22:04.320Z,116.50
2022-12-17T05:25:25.372Z,116.80
2022-12-17T05:28:45.827Z,117.40
2022-12-17T05:32:07.906Z,114.80
2022-12-17T05:39:08.839Z,112.80
2022-12-17T05:42:29.355Z,115.30
2022-12-17T05:45:49.570Z,115.80
2022-12-17T05:49:09.969Z,118.60
2022-12-17T05:52:30.601Z,111.60
2022-12-17T05:55:51.125Z,114.70
2022-12-17T05:59:11.423Z,106.80
2022-12-17T06:02:32.771Z,113.70
2022-12-17T06:05:53.240Z,114.30
2022-12-17T06:09:13.709Z,116.00
2022-12-17T06:12:34.345Z,111.90
2022-12-17T06:15:54.543Z,105.90
2022-12-17T06:19:14.980Z,113.00
2022-12-17T06:22:35.612Z,104.70
2022-12-17T06:25:56.023Z,108.30
2022-12-17T06:29:16.421Z,116.00
2022-12-17T06:32:37.159Z,113.30
2022-12-17T06:35:57.620Z,102.10
2022-12-17T06:39:18.104Z,104.80
2022-12-17T06:42:38.684Z,104.80
2022-12-17T06:45:59.280Z,107.60
2022-12-17T06:49:20.186Z,121.00
2022-12-17T06:52:41.493Z,126.00
2022-12-17T06:56:01.667Z,122.50
2022-12-17T06:59:22.169Z,115.80
2022-12-17T07:02:42.586Z,117.10
2022-12-17T07:06:03.918Z,123.80
2022-12-17T07:09:24.124Z,136.80
2022-12-17T07:12:44.811Z,122.70
2022-12-17T07:16:05.708Z,114.40
2022-12-17T07:19:27.628Z,120.00
2022-12-17T07:22:48.780Z,113.20
2022-12-17T07:26:09.380Z,114.30
2022-12-17T07:29:29.645Z,112.30
2022-12-17T07:32:49.979Z,104.00
2022-12-17T07:36:14.353Z,111.30
2022-12-17T07:39:35.010Z,116.10
2022-12-17T07:42:55.628Z,111.00
2022-12-17T07:46:16.062Z,108.60
2022-12-17T07:49:36.469Z,113.20
2022-12-17T07:52:57.195Z,111.70
2022-12-17T07:56:17.615Z,108.70
2022-12-17T07:59:38.606Z,107.50
2022-12-17T08:02:59.124Z,110.30
2022-12-17T08:06:19.741Z,120.40
2022-12-17T08:09:40.224Z,112.30
2022-12-17T08:13:00.999Z,110.80
2022-12-17T08:16:21.660Z,101.80
2022-12-17T08:19:42.165Z,100.00
2022-12-17T08:23:03.279Z,107.80
2022-12-17T08:26:25.111Z,100.80
2022-12-17T08:29:45.426Z,96.70
2022-12-17T08:33:05.741Z,106.20
2022-12-17T08:36:27.365Z,98.20
2022-12-17T08:39:47.974Z,106.10
2022-12-17T08:43:15.187Z,99.70
2022-12-17T08:46:35.446Z,104.40
2022-12-17T08:49:55.629Z,120.90
2022-12-17T08:53:20.894Z,99.10
2022-12-17T08:56:41.468Z,99.60
2022-12-17T09:00:02.139Z,98.20
2022-12-17T09:03:23.049Z,107.10
2022-12-17T09:06:43.343Z,105.20
2022-12-17T09:10:03.885Z,99.50
2022-12-17T09:13:24.443Z,110.40
2022-12-17T09:16:58.428Z,108.90
2022-12-17T09:20:18.964Z,117.70
2022-12-17T09:23:39.889Z,105.70
2022-12-17T09:27:00.562Z,111.80
2022-12-17T09:30:21.769Z,107.90
2022-12-17T09:33:42.068Z,108.60
2022-12-17T09:37:02.469Z,105.10
2022-12-17T09:40:23.285Z,106.10
2022-12-17T09:44:11.953Z,106.40
2022-12-17T09:48:01.875Z,101.40
2022-12-17T09:51:44.672Z,106.20
2022-12-17T09:55:07.681Z,103.60
2022-12-17T09:58:43.305Z,105.10
2022-12-17T10:02:04.107Z,112.50
2022-12-17T10:05:28.612Z,109.00
2022-12-17T10:08:49.269Z,112.20
2022-12-17T10:12:09.876Z,106.30
2022-12-17T10:15:33.401Z,111.30
2022-12-17T10:18:53.852Z,107.80
2022-12-17T10:22:32.658Z,112.70
2022-12-17T10:25:54.254Z,113.70
2022-12-17T10:29:23.173Z,106.30
2022-12-17T10:32:45.053Z,107.00
2022-12-17T10:36:05.390Z,109.40
2022-12-17T10:39:25.929Z,111.10
2022-12-17T10:42:48.920Z,112.90
2022-12-17T10:46:15.476Z,109.70
2022-12-17T10:49:38.123Z,111.40
2022-12-17T10:52:58.600Z,117.00
2022-12-17T10:56:19.158Z,109.10
2022-12-17T10:59:51.557Z,110.60
2022-12-17T11:03:12.212Z,110.80
2022-12-17T11:06:42.510Z,110.70
2022-12-17T11:10:09.970Z,106.20
2022-12-17T11:13:48.136Z,111.30
2022-12-17T11:17:12.052Z,114.20
2022-12-17T11:20:45.077Z,113.00
2022-12-17T11:24:07.886Z,120.30
2022-12-17T11:27:47.047Z,115.90
2022-12-17T11:31:19.266Z,114.40
2022-12-17T11:35:06.590Z,104.60
2022-12-17T11:38:39.829Z,108.70
2022-12-17T11:42:15.401Z,112.20
2022-12-17T11:45:42.120Z,120.00
2022-12-17T11:49:25.280Z,121.70
2022-12-17T11:52:49.366Z,121.60
2022-12-17T11:56:16.607Z,118.80
2022-12-17T11:59:51.113Z,114.80
2022-12-17T12:03:28.043Z,114.60
2022-12-17T12:06:58.357Z,114.90
2022-12-17T12:10:45.699Z,110.90
2022-12-17T12:14:41.796Z,120.80
2022-12-17T12:18:08.866Z,118.10
2022-12-17T12:21:37.241Z,119.30
2022-12-17T12:25:05.384Z,106.10
2022-12-17T12:28:46.004Z,113.40
2022-12-17T12:32:16.545Z,111.30
2022-12-17T12:36:00.513Z,105.00
2022-12-17T12:39:20.760Z,114.30
2022-12-17T12:42:58.160Z,99.20
2022-12-17T12:46:29.824Z,102.90
2022-12-17T12:50:18.033Z,114.10
2022-12-17T12:53:38.587Z,107.90
2022-12-17T12:56:59.114Z,105.20
2022-12-17T13:00:19.260Z,105.40
2022-12-17T13:03:47.164Z,104.30
2022-12-17T13:06:57.081Z,104.90
2022-12-17T13:09:59.562Z,105.40
2022-12-17T13:13:34.926Z,110.90
2022-12-17T13:16:53.694Z,103.90
2022-12-17T13:19:58.639Z,111.30
2022-12-17T13:23:09.631Z,119.00
2022-12-17T13:26:42.702Z,118.10
2022-12-17T13:29:44.466Z,131.20
2022-12-17T13:36:09.471Z,140.50
2022-12-17T13:39:25.606Z,139.30
2022-12-17T13:42:32.208Z,136.60
2022-12-17T13:45:36.273Z,134.50
2022-12-17T13:48:38.388Z,134.90
2022-12-17T13:51:40.473Z,141.70
2022-12-17T13:54:42.231Z,156.00
2022-12-17T13:57:48.663Z,145.30
2022-12-17T14:00:51.004Z,144.10
2022-12-17T14:04:11.192Z,137.50
2022-12-17T14:07:13.026Z,128.80
2022-12-17T14:10:19.355Z,131.80
2022-12-17T14:13:21.224Z,127.80
2022-12-17T14:16:23.392Z,128.40
2022-12-17T14:19:25.677Z,117.50
2022-12-17T14:22:37.590Z,113.70
2022-12-17T14:25:40.593Z,118.30
2022-12-17T14:28:51.017Z,118.10
2022-12-17T14:31:55.044Z,126.80
2022-12-17T14:35:00.643Z,150.50
2022-12-17T14:38:04.067Z,149.30
2022-12-17T14:41:32.944Z,132.80
2022-12-17T14:44:34.820Z,132.80
2022-12-17T14:53:40.356Z,137.30
2022-12-17T14:59:43.992Z,150.00
2022-12-17T15:02:52.231Z,154.20
2022-12-17T15:05:58.024Z,144.70
2022-12-17T15:08:59.839Z,164.70
2022-12-17T15:15:03.796Z,158.90
2022-12-17T15:18:05.482Z,178.80
2022-12-17T15:21:07.191Z,236.20
2022-12-17T15:24:12.243Z,255.70
2022-12-17T15:27:16.626Z,237.40
2022-12-17T15:30:18.933Z,162.00
2022-12-17T15:33:20.914Z,136.00
2022-12-17T15:36:22.557Z,135.40
2022-12-17T15:39:24.232Z,153.80
2022-12-17T15:42:44.849Z,141.30
2022-12-17T15:45:49.224Z,145.70
2022-12-17T15:48:51.301Z,151.50
2022-12-17T15:51:53.122Z,153.20
2022-12-17T15:54:54.943Z,163.00
2022-12-17T16:00:58.616Z,184.70
2022-12-17T16:04:00.415Z,193.90
2022-12-17T16:10:07.488Z,195.50
2022-12-17T16:13:09.210Z,200.90
2022-12-17T16:16:10.958Z,202.70
2022-12-17T16:19:12.636Z,214.80
2022-12-17T16:22:14.723Z,224.80
2022-12-17T16:25:16.507Z,208.10
2022-12-17T16:28:18.268Z,206.40
2022-12-17T16:31:19.991Z,215.00
2022-12-17T16:34:21.763Z,210.00
2022-12-17T16:37:23.694Z,239.40
2022-12-17T16:40:25.461Z,270.10
2022-12-17T16:43:27.875Z,229.00
2022-12-17T16:46:35.377Z,212.70
2022-12-17T16:49:37.263Z,218.00
2022-12-17T16:52:39.048Z,220.10
2022-12-17T16:55:42.317Z,215.90
2022-12-17T16:58:44.198Z,213.70
2022-12-17T17:04:48.908Z,222.50
2022-12-17T17:07:50.556Z,227.50
2022-12-17T17:10:52.534Z,216.50
2022-12-17T17:19:57.979Z,224.50
2022-12-17T17:22:59.956Z,209.10
2022-12-17T17:26:01.891Z,220.10
2022-12-17T17:29:04.646Z,222.00
2022-12-17T17:32:11.406Z,241.40
2022-12-17T17:35:14.671Z,244.70
2022-12-17T17:41:20.572Z,213.80
2022-12-17T17:44:22.610Z,234.80
2022-12-17T17:47:24.417Z,225.70
2022-12-17T17:50:26.123Z,238.30
2022-12-17T17:53:27.921Z,234.50
2022-12-17T17:59:34.161Z,242.40
2022-12-17T18:02:36.657Z,245.00
2022-12-17T18:05:41.728Z,239.30
2022-12-17T18:08:44.049Z,239.60
2022-12-17T18:11:45.766Z,231.80
2022-12-17T18:15:12.477Z,225.50
2022-12-17T18:18:14.301Z,230.60
2022-12-17T18:21:18.616Z,232.20
2022-12-17T18:24:22.877Z,244.90
2022-12-17T18:27:24.660Z,239.80
2022-12-17T18:33:28.041Z,236.60
2022-12-17T18:36:33.277Z,232.10
2022-12-17T18:39:35.055Z,239.20
2022-12-17T18:45:57.061Z,286.30
2022-12-17T18:49:01.777Z,290.40
2022-12-17T18:52:03.645Z,242.60
2022-12-17T18:55:06.162Z,241.00
2022-12-17T18:58:09.005Z,241.60
2022-12-17T19:01:23.372Z,226.30
2022-12-17T19:04:25.890Z,226.70
2022-12-17T19:07:27.608Z,245.00
2022-12-17T19:13:33.463Z,241.60
2022-12-17T19:16:35.311Z,251.50
2022-12-17T19:22:38.698Z,222.50
2022-12-17T19:26:09.929Z,194.40
2022-12-17T19:29:15.967Z,188.90
2022-12-17T19:32:17.818Z,201.90
2022-12-17T19:38:21.143Z,216.60
2022-12-17T19:41:24.064Z,207.10
2022-12-17T19:44:26.930Z,181.80
2022-12-17T19:47:30.675Z,186.60
2022-12-17T19:50:33.979Z,208.40
2022-12-17T19:53:37.268Z,184.60
2022-12-17T19:56:39.072Z,202.60
2022-12-17T20:02:42.640Z,204.80
2022-12-17T20:08:46.955Z,183.90
2022-12-17T20:11:48.604Z,194.20
2022-12-17T20:14:50.306Z,192.20
2022-12-17T20:17:51.977Z,179.50
2022-12-17T20:21:04.790Z,177.70
2022-12-17T20:24:06.785Z,179.70
2022-12-17T20:27:08.556Z,172.80
2022-12-17T20:30:10.685Z,200.00
2022-12-17T20:33:12.368Z,192.60
2022-12-17T20:36:16.521Z,200.00
2022-12-17T20:39:23.280Z,189.10
2022-12-17T20:42:28.177Z,187.00
2022-12-17T20:45:30.022Z,172.60
2022-12-17T20:51:34.160Z,169.60
2022-12-17T20:54:35.768Z,158.50
2022-12-17T20:57:37.467Z,166.40
2022-12-17T21:00:40.518Z,144.00
2022-12-17T21:03:42.799Z,158.10
2022-12-17T21:06:46.762Z,152.80
2022-12-17T21:09:48.491Z,158.10
2022-12-17T21:13:10.445Z,147.00
2022-12-17T21:16:24.356Z,159.50
2022-12-17T21:19:27.634Z,146.20
2022-12-17T21:22:29.489Z,151.90
2022-12-17T21:25:31.174Z,135.20
2022-12-17T21:28:34.437Z,137.50
2022-12-17T21:31:40.463Z,131.40
2022-12-17T21:34:42.307Z,122.00
2022-12-17T21:37:44.023Z,127.60
2022-12-17T21:40:46.336Z,130.50
2022-12-17T21:43:48.380Z,128.40
2022-12-17T21:46:50.550Z,125.00
2022-12-17T21:49:52.536Z,132.10
2022-12-17T21:52:54.341Z,124.80
2022-12-17T21:59:08.312Z,127.50
2022-12-17T22:02:10.763Z,125.50
2022-12-17T22:05:17.699Z,129.60
2022-12-17T22:08:20.003Z,133.70
2022-12-17T22:11:25.370Z,148.90
2022-12-17T22:14:28.779Z,130.30
2022-12-17T22:17:30.602Z,128.00
2022-12-17T22:20:32.799Z,135.70
2022-12-17T22:23:34.611Z,143.60
2022-12-17T22:26:36.870Z,135.40
2022-12-17T22:29:57.563Z,134.20
2022-12-17T22:32:59.576Z,154.90
2022-12-17T22:38:03.307Z,155.50
2022-12-17T22:44:29.444Z,152.40
2022-12-17T22:44:44.815Z,151.50
2022-12-17T22:46:27.624Z,125.50
2022-12-17T22:49:29.359Z,130.80
2022-12-17T22:52:31.199Z,130.10
2022-12-17T22:58:38.832Z,130.70
2022-12-17T23:01:40.620Z,127.30
2022-12-17T23:04:42.663Z,112.40
2022-12-17T23:07:44.332Z,126.60
2022-12-17T23:10:46.100Z,125.80
2022-12-17T23:13:48.158Z,121.80
2022-12-17T23:16:49.945Z,114.20
2022-12-17T23:19:51.931Z,120.40
2022-12-17T23:22:53.746Z,118.80
2022-12-17T23:25:55.788Z,114.90
2022-12-17T23:28:59.889Z,115.20
2022-12-17T23:32:02.979Z,119.10
2022-12-17T23:35:05.408Z,131.70
2022-12-17T23:38:07.129Z,128.60
2022-12-17T23:41:17.278Z,119.50
2022-12-17T23:44:19.025Z,123.50
2022-12-17T23:47:20.767Z,124.30
2022-12-17T23:50:22.423Z,124.70
2022-12-17T23:53:24.318Z,128.20
2022-12-17T23:59:29.055Z,115.80
